Terminal Aerodrome Forecast
Issued by NWS

Home | Current Version | Previous Version | Text Only | Print | Product List | Glossary On
Versions: 1 2 3 4 5 6 7 8 9 10 11 12 13 14 15 16 17 18 19
000
FTUS44 KTSA 051120
TAFXNA
TAF
KXNA 051120Z 0512/0612 17005KT P6SM SCT050
     FM051800 19008KT P6SM VCTS SCT050CB BKN150
     FM060100 17005KT P6SM BKN200=

USA.gov is the U.S. government's official web portal to all federal, state and local government web resources and services.